createdAt,value
2023-01-18T00:00:51.182Z,6.58
2023-01-18T00:03:19.012Z,6.57
2023-01-18T00:05:46.036Z,6.58
2023-01-18T00:08:16.827Z,6.58
2023-01-18T00:10:44.108Z,6.58
2023-01-18T00:13:12.385Z,6.57
2023-01-18T00:15:42.184Z,6.59
2023-01-18T00:18:08.981Z,6.59
2023-01-18T00:20:36.391Z,6.60
2023-01-18T00:23:03.853Z,6.60
2023-01-18T00:25:31.123Z,6.60
2023-01-18T00:27:58.605Z,6.60
2023-01-18T00:30:27.650Z,6.59
2023-01-18T00:32:58.431Z,6.59
2023-01-18T00:35:25.954Z,6.57
2023-01-18T00:37:54.210Z,6.57
2023-01-18T00:40:22.760Z,6.59
2023-01-18T00:43:08.701Z,6.58
2023-01-18T00:45:35.906Z,6.58
2023-01-18T00:48:03.053Z,6.58
2023-01-18T00:50:30.482Z,6.59
2023-01-18T00:52:59.073Z,6.56
2023-01-18T00:55:26.747Z,6.57
2023-01-18T00:57:53.881Z,6.57
2023-01-18T01:00:26.871Z,6.57
2023-01-18T01:02:54.918Z,6.59
2023-01-18T01:05:43.913Z,6.59
2023-01-18T01:08:17.574Z,6.59
2023-01-18T01:10:47.414Z,6.60
2023-01-18T01:13:37.526Z,6.58
2023-01-18T01:16:29.041Z,6.58
2023-01-18T01:19:14.836Z,6.57
2023-01-18T01:22:01.188Z,6.56
2023-01-18T01:24:47.057Z,6.54
2023-01-18T01:27:14.755Z,6.54
2023-01-18T01:29:41.573Z,6.56
2023-01-18T01:32:09.168Z,6.53
2023-01-18T01:34:36.430Z,6.52
2023-01-18T01:37:04.321Z,6.50
2023-01-18T01:39:31.854Z,6.51
2023-01-18T01:41:58.669Z,6.51
2023-01-18T01:44:28.450Z,6.51
2023-01-18T01:47:16.824Z,6.51
2023-01-18T01:49:49.467Z,6.51
2023-01-18T01:52:23.654Z,6.53
2023-01-18T01:54:57.154Z,6.52
2023-01-18T01:57:32.005Z,6.53
2023-01-18T02:00:10.734Z,6.53
2023-01-18T02:02:40.078Z,6.53
2023-01-18T02:05:09.468Z,6.52
2023-01-18T02:07:36.999Z,6.54
2023-01-18T02:10:06.299Z,6.53
2023-01-18T02:12:34.129Z,6.53
2023-01-18T02:15:01.712Z,6.54
2023-01-18T02:18:15.556Z,6.52
2023-01-18T02:21:28.310Z,6.59
2023-01-18T02:24:20.198Z,6.52
2023-01-18T02:26:52.904Z,6.49
2023-01-18T02:29:33.796Z,6.48
2023-01-18T02:32:27.822Z,6.48
2023-01-18T02:35:09.907Z,6.47
2023-01-18T02:37:59.767Z,6.44
2023-01-18T02:41:06.167Z,6.42
2023-01-18T02:43:53.855Z,6.42
2023-01-18T02:46:41.181Z,6.39
2023-01-18T02:49:12.021Z,6.39
2023-01-18T02:51:39.717Z,6.39
2023-01-18T02:54:10.060Z,6.39
2023-01-18T02:56:46.376Z,6.38
2023-01-18T02:59:41.182Z,6.36
2023-01-18T03:02:13.809Z,6.34
2023-01-18T03:04:55.254Z,6.34
2023-01-18T03:07:30.933Z,6.34
2023-01-18T03:09:59.997Z,6.32
2023-01-18T03:12:46.177Z,6.33
2023-01-18T03:15:27.785Z,6.31
2023-01-18T03:18:05.764Z,6.32
2023-01-18T03:20:38.292Z,6.30
2023-01-18T03:23:42.044Z,6.32
2023-01-18T03:26:12.303Z,6.29
2023-01-18T03:29:02.308Z,6.27
2023-01-18T03:31:52.697Z,6.29
2023-01-18T03:34:56.023Z,6.27
2023-01-18T03:37:33.920Z,6.29
2023-01-18T03:40:04.897Z,6.27
2023-01-18T03:42:37.667Z,6.26
2023-01-18T03:45:37.558Z,6.28
2023-01-18T03:48:06.967Z,6.32
2023-01-18T03:50:57.219Z,6.29
2023-01-18T03:53:46.158Z,6.30
2023-01-18T03:56:18.779Z,6.30
2023-01-18T03:58:49.657Z,6.29
2023-01-18T04:01:16.673Z,6.28
2023-01-18T04:03:44.168Z,6.29
2023-01-18T04:06:11.334Z,6.27
2023-01-18T04:08:38.189Z,6.29
2023-01-18T04:11:05.758Z,6.30
2023-01-18T04:13:32.868Z,6.31
2023-01-18T04:15:59.653Z,6.30
2023-01-18T04:18:26.785Z,6.29
2023-01-18T04:20:56.771Z,6.32
2023-01-18T04:23:24.156Z,6.31
2023-01-18T04:25:52.282Z,6.32
2023-01-18T04:28:28.074Z,6.34
2023-01-18T04:30:57.049Z,6.30
2023-01-18T04:33:26.742Z,6.31
2023-01-18T04:35:54.702Z,6.31
2023-01-18T04:38:21.606Z,6.32
2023-01-18T04:40:49.330Z,6.32
2023-01-18T04:43:16.116Z,6.33
2023-01-18T04:45:43.228Z,6.31
2023-01-18T04:48:10.763Z,6.29
2023-01-18T04:50:39.014Z,6.29
2023-01-18T04:53:06.138Z,6.29
2023-01-18T04:55:33.237Z,6.29
2023-01-18T04:58:01.169Z,6.29
2023-01-18T05:00:28.390Z,6.27
2023-01-18T05:02:55.627Z,6.28
2023-01-18T05:05:22.811Z,6.26
2023-01-18T05:07:49.575Z,6.25
2023-01-18T05:10:17.223Z,6.25
2023-01-18T05:12:43.995Z,6.26
2023-01-18T05:15:11.232Z,6.26
2023-01-18T05:17:38.664Z,6.25
2023-01-18T05:20:09.264Z,6.24
2023-01-18T05:22:37.270Z,6.25
2023-01-18T05:25:06.244Z,6.28
2023-01-18T05:27:33.830Z,6.29
2023-01-18T05:30:01.996Z,6.28
2023-01-18T05:32:29.449Z,6.26
2023-01-18T05:34:56.530Z,6.27
2023-01-18T05:37:23.647Z,6.24
2023-01-18T05:39:50.706Z,6.27
2023-01-18T05:42:17.471Z,6.24
2023-01-18T05:44:44.609Z,6.25
2023-01-18T05:47:11.690Z,6.27
2023-01-18T05:49:41.041Z,6.26
2023-01-18T05:52:09.315Z,6.27
2023-01-18T05:54:36.688Z,6.29
2023-01-18T05:57:04.152Z,6.29
2023-01-18T05:59:30.933Z,6.28
2023-01-18T06:01:58.166Z,6.25
2023-01-18T06:04:25.336Z,6.24
2023-01-18T06:06:52.144Z,6.23
2023-01-18T06:09:19.526Z,6.25
2023-01-18T06:11:46.610Z,6.22
2023-01-18T06:14:13.769Z,6.23
2023-01-18T06:16:40.603Z,6.21
2023-01-18T06:19:08.035Z,6.21
2023-01-18T06:21:34.824Z,6.20
2023-01-18T06:24:02.271Z,6.18
2023-01-18T06:26:31.244Z,6.22
2023-01-18T06:28:58.687Z,6.21
2023-01-18T06:31:25.801Z,6.20
2023-01-18T06:33:53.202Z,6.19
2023-01-18T06:36:20.311Z,6.21
2023-01-18T06:38:47.727Z,6.20
2023-01-18T06:41:16.332Z,6.21
2023-01-18T06:43:43.544Z,6.21
2023-01-18T06:46:12.022Z,6.22
2023-01-18T06:48:39.175Z,6.22
2023-01-18T06:51:06.600Z,6.25
2023-01-18T06:53:34.590Z,6.28
2023-01-18T06:56:03.709Z,6.28
2023-01-18T06:58:33.120Z,6.28
2023-01-18T07:01:01.182Z,6.30
2023-01-18T07:03:30.202Z,6.30
2023-01-18T07:05:59.200Z,6.32
2023-01-18T07:08:27.791Z,6.33
2023-01-18T07:10:54.995Z,6.31
2023-01-18T07:13:22.338Z,6.31
2023-01-18T07:16:00.819Z,6.30
2023-01-18T07:18:30.526Z,6.26
2023-01-18T07:21:04.399Z,6.27
2023-01-18T07:23:31.828Z,6.26
2023-01-18T07:26:03.082Z,6.28
2023-01-18T07:28:31.726Z,6.29
2023-01-18T07:30:59.117Z,6.29
2023-01-18T07:33:26.918Z,6.28
2023-01-18T07:35:54.790Z,6.27
2023-01-18T07:38:23.252Z,6.22
2023-01-18T07:40:51.023Z,6.21
2023-01-18T07:43:18.672Z,6.22
2023-01-18T07:45:54.261Z,6.21
2023-01-18T07:48:22.310Z,6.20
2023-01-18T07:51:04.670Z,6.22
2023-01-18T07:53:34.256Z,6.23
2023-01-18T07:56:02.743Z,6.23
2023-01-18T07:58:30.529Z,6.24
2023-01-18T08:01:12.663Z,6.25
2023-01-18T08:03:39.699Z,6.28
2023-01-18T08:06:08.782Z,6.28
2023-01-18T08:08:36.778Z,6.31
2023-01-18T08:11:06.048Z,6.31
2023-01-18T08:13:33.789Z,6.34
2023-01-18T08:16:02.961Z,6.37
2023-01-18T08:18:30.506Z,6.38
2023-01-18T08:20:58.442Z,6.39
2023-01-18T08:23:25.607Z,6.41
2023-01-18T08:25:52.649Z,6.43
2023-01-18T08:28:20.302Z,6.50
2023-01-18T08:30:49.493Z,6.55
2023-01-18T08:33:16.358Z,6.59
2023-01-18T08:35:45.960Z,6.57
2023-01-18T08:38:15.183Z,6.49
2023-01-18T08:40:42.463Z,6.49
2023-01-18T08:43:12.031Z,6.51
2023-01-18T08:45:39.154Z,6.51
2023-01-18T08:48:08.544Z,6.50
2023-01-18T08:50:36.852Z,6.51
2023-01-18T08:53:06.816Z,6.52
2023-01-18T08:55:36.849Z,6.53
2023-01-18T08:58:04.243Z,6.56
2023-01-18T09:00:31.755Z,6.59
2023-01-18T09:02:59.626Z,6.60
2023-01-18T09:05:27.460Z,6.62
2023-01-18T09:07:55.449Z,6.64
2023-01-18T09:10:23.935Z,6.68
2023-01-18T09:12:55.227Z,6.69
2023-01-18T09:15:22.386Z,6.70
2023-01-18T09:17:49.524Z,6.72
2023-01-18T09:20:18.771Z,6.72
2023-01-18T09:22:48.267Z,6.71
2023-01-18T09:25:15.893Z,6.71
2023-01-18T09:27:42.724Z,6.73
2023-01-18T09:30:10.741Z,6.76
2023-01-18T09:32:37.482Z,6.76
2023-01-18T09:35:06.446Z,6.78
2023-01-18T09:37:33.716Z,6.80
2023-01-18T09:40:00.557Z,6.82
2023-01-18T09:42:35.862Z,6.84
2023-01-18T09:45:05.180Z,6.85
2023-01-18T09:47:37.116Z,6.87
2023-01-18T09:50:17.702Z,6.91
2023-01-18T09:53:17.162Z,6.92
2023-01-18T09:56:20.405Z,6.94
2023-01-18T09:58:54.985Z,6.94
2023-01-18T10:01:27.212Z,6.93
2023-01-18T10:04:14.418Z,6.95
2023-01-18T10:07:05.309Z,6.96
2023-01-18T10:09:39.726Z,6.95
2023-01-18T10:12:26.527Z,6.97
2023-01-18T10:14:58.613Z,6.97
2023-01-18T10:17:47.001Z,6.96
2023-01-18T10:20:28.752Z,6.95
2023-01-18T10:23:02.062Z,6.95
2023-01-18T10:25:52.515Z,6.98
2023-01-18T10:28:25.677Z,7.00
2023-01-18T10:30:58.198Z,7.03
2023-01-18T10:33:30.577Z,7.07
2023-01-18T10:36:02.917Z,7.09
2023-01-18T10:38:30.913Z,7.14
2023-01-18T10:41:02.812Z,7.18
2023-01-18T10:43:32.080Z,7.23
2023-01-18T10:45:59.052Z,7.27
2023-01-18T10:48:33.289Z,7.34
2023-01-18T10:51:04.158Z,7.39
2023-01-18T10:53:36.855Z,7.42
2023-01-18T10:56:10.025Z,7.47
2023-01-18T10:58:51.793Z,7.49
2023-01-18T11:01:35.539Z,7.52
2023-01-18T11:04:09.260Z,7.54
2023-01-18T11:06:45.967Z,7.56
2023-01-18T11:09:51.692Z,7.59
2023-01-18T11:12:44.636Z,7.63
2023-01-18T11:15:14.491Z,7.65
2023-01-18T11:17:50.921Z,7.67
2023-01-18T11:20:35.381Z,7.69
2023-01-18T11:23:15.151Z,7.73
2023-01-18T11:25:41.869Z,7.76
2023-01-18T11:28:44.867Z,7.79
2023-01-18T11:31:13.992Z,7.82
2023-01-18T11:34:08.003Z,7.85
2023-01-18T11:36:36.699Z,7.89
2023-01-18T11:39:19.384Z,7.92
2023-01-18T11:41:46.393Z,7.97
2023-01-18T11:44:24.747Z,7.99
2023-01-18T11:46:58.098Z,8.04
2023-01-18T11:49:33.158Z,8.08
2023-01-18T11:52:12.649Z,8.11
2023-01-18T11:54:47.499Z,8.15
2023-01-18T11:57:14.519Z,8.19
2023-01-18T11:59:46.298Z,8.22
2023-01-18T12:02:37.386Z,8.23
2023-01-18T12:05:23.007Z,8.26
2023-01-18T12:07:58.439Z,8.28
2023-01-18T12:10:30.720Z,8.30
2023-01-18T12:13:03.433Z,8.30
2023-01-18T12:16:08.193Z,8.31
2023-01-18T12:18:54.174Z,8.32
2023-01-18T12:21:47.600Z,8.34
2023-01-18T12:24:22.205Z,8.36
2023-01-18T12:27:08.985Z,8.38
2023-01-18T12:29:54.368Z,8.39
2023-01-18T12:32:40.189Z,8.39
2023-01-18T12:35:22.623Z,8.41
2023-01-18T12:38:28.045Z,8.43
2023-01-18T12:41:31.904Z,8.43
2023-01-18T12:44:26.569Z,8.44
2023-01-18T12:47:01.228Z,8.46
2023-01-18T12:49:34.685Z,8.46
2023-01-18T12:52:17.985Z,8.47
2023-01-18T12:54:56.374Z,8.49
2023-01-18T12:57:25.672Z,8.49
2023-01-18T13:00:02.776Z,8.50
2023-01-18T13:02:38.857Z,8.52
2023-01-18T13:05:35.434Z,8.52
2023-01-18T13:08:06.334Z,8.53
2023-01-18T13:10:34.221Z,8.53
2023-01-18T13:13:04.120Z,8.54
2023-01-18T13:15:54.137Z,8.55
2023-01-18T13:18:36.879Z,8.55
2023-01-18T13:21:24.673Z,8.54
2023-01-18T13:23:53.871Z,8.54
2023-01-18T13:26:20.935Z,8.54
2023-01-18T13:28:48.221Z,8.54
2023-01-18T13:31:15.434Z,8.54
2023-01-18T13:33:47.666Z,8.54
2023-01-18T13:36:19.111Z,8.53
2023-01-18T13:38:58.298Z,8.53
2023-01-18T13:41:28.258Z,8.52
2023-01-18T13:44:04.264Z,8.52
2023-01-18T13:46:36.424Z,8.52
2023-01-18T13:49:37.736Z,8.51
2023-01-18T13:52:35.700Z,8.50
2023-01-18T13:55:24.387Z,8.49
2023-01-18T13:57:55.622Z,8.49
2023-01-18T14:00:27.029Z,8.47
2023-01-18T14:03:04.666Z,8.47
2023-01-18T14:05:42.735Z,8.48
2023-01-18T14:08:20.725Z,8.47
2023-01-18T14:10:53.356Z,8.46
2023-01-18T14:13:46.474Z,8.46
2023-01-18T14:16:26.297Z,8.45
2023-01-18T14:19:24.069Z,8.44
2023-01-18T14:22:06.201Z,8.42
2023-01-18T14:24:54.777Z,8.43
2023-01-18T14:27:27.147Z,8.41
2023-01-18T14:30:04.582Z,8.40
2023-01-18T14:32:38.218Z,8.39
2023-01-18T14:35:25.786Z,8.40
2023-01-18T14:38:16.712Z,8.38
2023-01-18T14:40:47.237Z,8.37
2023-01-18T14:43:30.081Z,8.37
2023-01-18T14:46:16.096Z,8.36
2023-01-18T14:48:49.010Z,8.34
2023-01-18T14:51:19.077Z,8.35
2023-01-18T14:53:50.721Z,8.33
2023-01-18T14:56:22.122Z,8.34
2023-01-18T14:59:00.839Z,8.32
2023-01-18T15:01:39.606Z,8.31
2023-01-18T15:04:19.680Z,8.30
2023-01-18T15:06:53.058Z,8.29
2023-01-18T15:09:22.847Z,8.29
2023-01-18T15:11:53.359Z,8.27
2023-01-18T15:14:24.912Z,8.25
2023-01-18T15:16:56.031Z,8.23
2023-01-18T15:19:39.915Z,8.18
2023-01-18T15:22:11.198Z,8.16
2023-01-18T15:24:41.322Z,8.14
2023-01-18T15:27:14.104Z,8.11
2023-01-18T15:29:46.445Z,8.10
2023-01-18T15:32:26.988Z,8.10
2023-01-18T15:34:56.399Z,8.08
2023-01-18T15:37:36.861Z,8.05
2023-01-18T15:40:07.261Z,8.03
2023-01-18T15:42:53.833Z,7.98
2023-01-18T15:45:26.098Z,7.97
2023-01-18T15:48:08.859Z,7.94
2023-01-18T15:50:44.051Z,7.91
2023-01-18T15:53:37.312Z,7.92
2023-01-18T15:56:09.107Z,7.88
2023-01-18T15:58:57.150Z,7.86
2023-01-18T16:01:28.963Z,7.84
2023-01-18T16:04:22.787Z,7.82
2023-01-18T16:06:49.957Z,7.81
2023-01-18T16:09:20.717Z,7.79
2023-01-18T16:11:53.398Z,7.78
2023-01-18T16:14:31.425Z,7.76
2023-01-18T16:17:04.687Z,7.76
2023-01-18T16:19:37.145Z,7.75
2023-01-18T16:22:18.634Z,7.74
2023-01-18T16:24:50.445Z,7.73
2023-01-18T16:27:20.268Z,7.70
2023-01-18T16:29:54.449Z,7.65
2023-01-18T16:32:31.020Z,7.65
2023-01-18T16:35:20.860Z,7.63
2023-01-18T16:37:48.996Z,7.60
2023-01-18T16:40:22.357Z,7.59
2023-01-18T16:43:02.066Z,7.54
2023-01-18T16:45:31.191Z,7.54
2023-01-18T16:47:58.412Z,7.50
2023-01-18T16:50:26.992Z,7.49
2023-01-18T16:52:54.299Z,7.48
2023-01-18T16:55:23.047Z,7.47
2023-01-18T16:57:51.731Z,7.46
2023-01-18T17:00:24.962Z,7.39
2023-01-18T17:02:53.654Z,7.38
2023-01-18T17:05:24.137Z,7.36
2023-01-18T17:07:52.983Z,7.32
2023-01-18T17:10:29.656Z,7.32
2023-01-18T17:12:57.483Z,7.30
2023-01-18T17:15:28.323Z,7.30
2023-01-18T17:17:56.059Z,7.27
2023-01-18T17:20:26.083Z,7.25
2023-01-18T17:22:55.971Z,7.20
2023-01-18T17:25:23.981Z,7.16
2023-01-18T17:27:51.517Z,7.15
2023-01-18T17:30:21.802Z,7.13
2023-01-18T17:32:49.897Z,7.09
2023-01-18T17:35:20.506Z,7.11
2023-01-18T17:37:48.813Z,7.08
2023-01-18T17:40:27.490Z,7.06
2023-01-18T17:43:02.576Z,7.00
2023-01-18T17:45:29.912Z,6.96
2023-01-18T17:47:58.412Z,6.95
2023-01-18T17:50:27.004Z,6.94
2023-01-18T17:52:55.872Z,6.90
2023-01-18T17:55:34.232Z,6.92
2023-01-18T17:58:03.658Z,6.90
2023-01-18T18:00:32.521Z,6.91
2023-01-18T18:03:02.292Z,6.88
2023-01-18T18:05:31.588Z,6.88
2023-01-18T18:07:59.579Z,6.86
2023-01-18T18:10:27.846Z,6.88
2023-01-18T18:13:03.204Z,6.89
2023-01-18T18:15:31.780Z,6.86
2023-01-18T18:18:00.615Z,6.87
2023-01-18T18:20:28.516Z,6.87
2023-01-18T18:22:56.875Z,6.85
2023-01-18T18:25:25.647Z,6.84
2023-01-18T18:27:53.766Z,6.82
2023-01-18T18:30:21.602Z,6.81
2023-01-18T18:32:49.520Z,6.81
2023-01-18T18:35:26.253Z,6.80
2023-01-18T18:37:55.945Z,6.77
2023-01-18T18:40:25.551Z,6.78
2023-01-18T18:43:01.627Z,6.76
2023-01-18T18:45:32.465Z,6.77
2023-01-18T18:48:04.487Z,6.74
2023-01-18T18:50:33.174Z,6.72
2023-01-18T18:53:02.217Z,6.74
2023-01-18T18:55:30.908Z,6.72
2023-01-18T18:57:59.628Z,6.70
2023-01-18T19:00:29.837Z,6.72
2023-01-18T19:03:03.548Z,6.71
2023-01-18T19:05:34.558Z,6.70
2023-01-18T19:08:02.953Z,6.68
2023-01-18T19:10:30.915Z,6.71
2023-01-18T19:13:00.395Z,6.72
2023-01-18T19:15:29.268Z,6.71
2023-01-18T19:17:58.274Z,6.71
2023-01-18T19:20:28.221Z,6.72
2023-01-18T19:22:56.315Z,6.71
2023-01-18T19:25:27.872Z,6.67
2023-01-18T19:27:56.591Z,6.67
2023-01-18T19:30:24.826Z,6.67
2023-01-18T19:32:54.223Z,6.65
2023-01-18T19:35:22.878Z,6.65
2023-01-18T19:37:54.138Z,6.62
2023-01-18T19:40:22.699Z,6.63
2023-01-18T19:43:00.600Z,6.63
2023-01-18T19:45:32.305Z,6.65
2023-01-18T19:48:02.616Z,6.64
2023-01-18T19:50:31.373Z,6.61
2023-01-18T19:53:00.101Z,6.61
2023-01-18T19:55:29.244Z,6.62
2023-01-18T19:57:59.860Z,6.65
2023-01-18T20:00:31.887Z,6.64
2023-01-18T20:03:01.740Z,6.63
2023-01-18T20:05:30.610Z,6.63
2023-01-18T20:07:58.919Z,6.62
2023-01-18T20:10:27.633Z,6.59
2023-01-18T20:13:00.079Z,6.58
2023-01-18T20:15:28.975Z,6.54
2023-01-18T20:17:59.349Z,6.56
2023-01-18T20:20:32.871Z,6.58
2023-01-18T20:23:04.654Z,6.57
2023-01-18T20:25:33.895Z,6.58
2023-01-18T20:28:02.133Z,6.56
2023-01-18T20:30:30.951Z,6.56
2023-01-18T20:33:00.097Z,6.56
2023-01-18T20:35:29.473Z,6.56
2023-01-18T20:37:57.683Z,6.55
2023-01-18T20:40:27.511Z,6.56
2023-01-18T20:42:56.233Z,6.53
2023-01-18T20:45:25.915Z,6.53
2023-01-18T20:47:54.920Z,6.54
2023-01-18T20:50:24.688Z,6.53
2023-01-18T20:52:54.015Z,6.53
2023-01-18T20:55:23.072Z,6.54
2023-01-18T20:57:52.679Z,6.52
2023-01-18T21:00:22.359Z,6.52
2023-01-18T21:02:50.540Z,6.51
2023-01-18T21:05:18.538Z,6.51
2023-01-18T21:07:46.699Z,6.51
2023-01-18T21:10:14.394Z,6.51
2023-01-18T21:12:41.484Z,6.49
2023-01-18T21:15:09.774Z,6.51
2023-01-18T21:17:37.781Z,6.50
2023-01-18T21:20:07.413Z,6.50
2023-01-18T21:22:34.763Z,6.50
2023-01-18T21:25:01.859Z,6.49
2023-01-18T21:27:29.151Z,6.50
2023-01-18T21:29:57.147Z,6.49
2023-01-18T21:32:24.260Z,6.50
2023-01-18T21:34:52.024Z,6.49
2023-01-18T21:37:19.130Z,6.52
2023-01-18T21:39:46.271Z,6.49
2023-01-18T21:42:31.671Z,6.49
2023-01-18T21:45:17.279Z,6.49
2023-01-18T21:47:44.343Z,6.51
2023-01-18T21:50:49.703Z,6.50
2023-01-18T21:53:35.804Z,6.48
2023-01-18T21:56:03.318Z,6.47
2023-01-18T21:58:49.244Z,6.42
2023-01-18T22:01:19.948Z,6.46
2023-01-18T22:04:06.357Z,6.46
2023-01-18T22:06:33.153Z,6.44
2023-01-18T22:09:00.704Z,6.44
2023-01-18T22:11:27.913Z,6.45
2023-01-18T22:13:55.071Z,6.46
2023-01-18T22:16:23.539Z,6.45
2023-01-18T22:18:50.402Z,6.45
2023-01-18T22:21:17.954Z,6.45
2023-01-18T22:23:45.491Z,6.42
2023-01-18T22:26:12.557Z,6.41
2023-01-18T22:28:39.643Z,6.41
2023-01-18T22:31:08.826Z,6.42
2023-01-18T22:33:35.997Z,6.40
2023-01-18T22:36:04.614Z,6.41
2023-01-18T22:38:32.538Z,6.42
2023-01-18T22:41:07.136Z,6.43
2023-01-18T22:43:35.230Z,6.43
2023-01-18T22:46:03.967Z,6.42
2023-01-18T22:48:31.571Z,6.40
2023-01-18T22:51:00.016Z,6.40
2023-01-18T22:53:30.118Z,6.41
2023-01-18T22:56:05.543Z,6.39
2023-01-18T22:58:32.964Z,6.36
2023-01-18T23:01:00.439Z,6.35
2023-01-18T23:03:28.410Z,6.34
2023-01-18T23:05:57.073Z,6.35
2023-01-18T23:08:38.748Z,6.35
2023-01-18T23:11:06.257Z,6.33
2023-01-18T23:13:33.309Z,6.36
2023-01-18T23:16:19.456Z,6.35
2023-01-18T23:18:46.602Z,6.34
2023-01-18T23:21:13.657Z,6.33
2023-01-18T23:23:40.880Z,6.36
2023-01-18T23:26:09.250Z,6.35
2023-01-18T23:28:42.068Z,6.35
2023-01-18T23:31:15.494Z,6.36
2023-01-18T23:33:42.935Z,6.33
2023-01-18T23:36:11.937Z,6.32
2023-01-18T23:38:57.658Z,6.33
2023-01-18T23:41:43.887Z,6.37
2023-01-18T23:44:29.492Z,6.37
2023-01-18T23:47:15.484Z,6.35
2023-01-18T23:50:00.948Z,6.35
2023-01-18T23:52:46.420Z,6.32
2023-01-18T23:55:13.813Z,6.36
2023-01-18T23:57:41.091Z,6.34
